Time;durP1;ratioP1;P1;durP2;ratioP2;P2;SDS_P1;SDS_P2;PMS_P1;PMS_P2;Temp;Humidity;BMP_temperature;BMP_pressure;BME280_temperature;BME280_humidity;BME280_pressure;Samples;Min_cycle;Max_cycle;Signal;HPM_P1;HPM_P2
2024/02/11 00:01:25;;;;;;;3.93;2.90;;;9.60;99.90;;;;;;4965078;28;20462;-50
2024/02/11 00:03:56;;;;;;;3.93;2.70;;;9.60;99.90;;;;;;4966397;28;20495;-47
2024/02/11 00:06:25;;;;;;;2.53;2.30;;;9.60;99.90;;;;;;4961888;28;20549;-47
2024/02/11 00:08:53;;;;;;;4.70;3.37;;;9.60;99.90;;;;;;4967818;28;20434;-47
2024/02/11 00:11:22;;;;;;;3.63;3.03;;;9.60;99.90;;;;;;4963523;28;20574;-48
2024/02/11 00:13:51;;;;;;;3.40;3.00;;;9.60;99.90;;;;;;4967916;28;20458;-48
2024/02/11 00:16:23;;;;;;;3.50;3.20;;;9.60;99.90;;;;;;4965925;28;20880;-50
2024/02/11 00:18:52;;;;;;;7.57;3.00;;;9.60;99.90;;;;;;4951844;28;20457;-48
2024/02/11 00:21:23;;;;;;;4.00;2.87;;;9.60;99.90;;;;;;4949238;28;20470;-47
2024/02/11 00:23:59;;;;;;;4.03;3.63;;;9.60;99.90;;;;;;4967745;28;20513;-47
2024/02/11 00:26:27;;;;;;;4.43;3.17;;;9.60;99.90;;;;;;4946933;28;20496;-47
2024/02/11 00:28:57;;;;;;;3.93;2.87;;;9.60;99.90;;;;;;4968079;28;20442;-48
2024/02/11 00:31:27;;;;;;;3.53;2.83;;;9.60;99.90;;;;;;4966217;28;20549;-46
2024/02/11 00:33:57;;;;;;;3.30;2.50;;;9.60;99.90;;;;;;4966569;28;20537;-46
2024/02/11 00:36:28;;;;;;;4.10;2.97;;;9.60;99.90;;;;;;4966502;28;20564;-47
2024/02/11 00:38:58;;;;;;;3.13;2.30;;;9.60;99.90;;;;;;4950699;28;20450;-48
2024/02/11 00:41:28;;;;;;;5.23;2.90;;;9.60;99.90;;;;;;4932744;28;20462;-48
2024/02/11 00:43:58;;;;;;;5.23;3.93;;;9.60;99.90;;;;;;4968034;28;20461;-47
2024/02/11 00:46:27;;;;;;;3.20;2.90;;;9.60;99.90;;;;;;4963036;28;21031;-47
2024/02/11 00:48:59;;;;;;;4.20;3.60;;;9.60;99.90;;;;;;4966669;28;20438;-47
2024/02/11 00:51:29;;;;;;;3.37;3.07;;;9.60;99.90;;;;;;4966170;28;20602;-47
2024/02/11 00:53:59;;;;;;;2.77;2.50;;;9.60;99.90;;;;;;4949474;28;21011;-47
2024/02/11 00:56:29;;;;;;;5.30;3.77;;;9.60;99.90;;;;;;4946779;28;20504;-47
2024/02/11 00:58:58;;;;;;;3.50;2.90;;;9.60;99.90;;;;;;4966951;28;20526;-47
2024/02/11 01:01:27;;;;;;;3.10;2.80;;;9.60;99.90;;;;;;4946471;28;20478;-50
2024/02/11 01:03:57;;;;;;;3.03;2.70;;;9.60;99.90;;;;;;4964165;28;20563;-47
2024/02/11 01:06:27;;;;;;;3.00;2.70;;;9.60;99.90;;;;;;4945514;28;20533;-50
2024/02/11 01:08:57;;;;;;;3.70;3.40;;;9.60;99.90;;;;;;4966824;28;20435;-46
2024/02/11 01:11:26;;;;;;;4.20;3.40;;;9.60;99.90;;;;;;4960101;28;20541;-49
2024/02/11 01:13:56;;;;;;;4.33;3.73;;;9.60;99.90;;;;;;4949927;28;20564;-48
2024/02/11 01:16:28;;;;;;;3.23;2.63;;;9.60;99.90;;;;;;4947121;28;20502;-46
2024/02/11 01:18:58;;;;;;;4.27;3.47;;;9.60;99.90;;;;;;4948444;28;20472;-48
2024/02/11 01:21:27;;;;;;;3.50;3.10;;;9.60;99.90;;;;;;4965854;28;20994;-47
2024/02/11 01:23:57;;;;;;;4.60;3.67;;;9.60;99.90;;;;;;4966363;28;20473;-47
2024/02/11 01:26:25;;;;;;;3.57;3.03;;;9.60;99.90;;;;;;4962242;28;20538;-47
2024/02/11 01:28:56;;;;;;;3.80;2.87;;;9.60;99.90;;;;;;4949744;28;20433;-46
2024/02/11 01:31:26;;;;;;;5.07;2.90;;;9.60;99.90;;;;;;4963547;28;20462;-47
2024/02/11 01:33:55;;;;;;;3.73;2.43;;;9.60;99.90;;;;;;4952846;28;20466;-47
2024/02/11 01:36:24;;;;;;;3.10;2.73;;;9.60;99.90;;;;;;4963464;28;20485;-47
2024/02/11 01:38:57;;;;;;;5.20;3.57;;;9.60;99.90;;;;;;4966863;28;20460;-49
2024/02/11 01:41:27;;;;;;;3.50;3.10;;;9.60;99.90;;;;;;4963831;28;20475;-49
2024/02/11 01:43:58;;;;;;;3.03;2.57;;;9.60;99.90;;;;;;4966670;28;20472;-46
2024/02/11 01:46:27;;;;;;;3.33;3.03;;;9.60;99.90;;;;;;4945882;28;20503;-45
2024/02/11 01:49:02;;;;;;;4.23;3.10;;;9.60;99.90;;;;;;4964441;28;20494;-46
2024/02/11 01:51:34;;;;;;;4.43;2.70;;;9.60;99.90;;;;;;4965811;28;20823;-46
2024/02/11 01:54:05;;;;;;;2.63;2.43;;;9.60;99.90;;;;;;4965483;28;20471;-46
2024/02/11 01:56:35;;;;;;;4.53;3.57;;;9.60;99.90;;;;;;4960368;28;20911;-46
2024/02/11 01:59:04;;;;;;;4.03;3.17;;;9.60;99.90;;;;;;4966734;28;20438;-46
2024/02/11 02:01:33;;;;;;;3.10;2.80;;;9.60;99.90;;;;;;4962707;28;20535;-46
2024/02/11 02:04:03;;;;;;;3.30;3.00;;;9.60;99.90;;;;;;4964909;28;20860;-46
2024/02/11 02:06:32;;;;;;;5.60;3.97;;;9.60;99.90;;;;;;4947127;28;20467;-46
2024/02/11 02:09:01;;;;;;;3.90;3.50;;;9.60;99.90;;;;;;4965378;28;20526;-46
2024/02/11 02:11:31;;;;;;;3.83;3.00;;;9.60;99.90;;;;;;4962722;28;20471;-46
2024/02/11 02:14:00;;;;;;;3.67;3.27;;;9.60;99.90;;;;;;4965120;28;20815;-46
2024/02/11 02:16:28;;;;;;;4.03;3.73;;;9.60;99.90;;;;;;4947464;28;20554;-45
2024/02/11 02:18:57;;;;;;;3.87;3.30;;;9.60;99.90;;;;;;4964735;28;20431;-46
2024/02/11 02:21:27;;;;;;;3.17;2.83;;;9.60;99.90;;;;;;4965198;28;20471;-46
2024/02/11 02:23:57;;;;;;;4.30;3.37;;;9.60;99.90;;;;;;4965048;28;20461;-46
2024/02/11 02:26:26;;;;;;;4.60;3.40;;;9.60;99.90;;;;;;4961965;28;20557;-46
2024/02/11 02:28:56;;;;;;;4.40;3.60;;;9.60;99.90;;;;;;4965623;28;20446;-46
2024/02/11 02:31:25;;;;;;;3.60;3.30;;;9.60;99.90;;;;;;4963257;28;20513;-45
2024/02/11 02:33:55;;;;;;;3.30;2.80;;;9.60;99.90;;;;;;4963324;28;20966;-45
2024/02/11 02:36:24;;;;;;;3.57;2.50;;;9.60;99.90;;;;;;4946412;28;20473;-49
2024/02/11 02:38:53;;;;;;;3.17;2.83;;;9.60;99.90;;;;;;4964886;28;20438;-48
2024/02/11 02:41:24;;;;;;;3.77;3.10;;;9.60;99.90;;;;;;4962122;28;20467;-47
2024/02/11 02:43:53;;;;;;;4.50;3.43;;;9.60;99.90;;;;;;4964817;28;20620;-47
2024/02/11 02:46:22;;;;;;;4.60;3.20;;;9.60;99.90;;;;;;4963080;28;20470;-48
2024/02/11 02:48:57;;;;;;;4.40;3.40;;;9.60;99.90;;;;;;4963693;28;20434;-46
2024/02/11 02:51:26;;;;;;;3.50;3.20;;;9.60;99.90;;;;;;4946801;28;20941;-47
2024/02/11 02:53:56;;;;;;;3.20;2.90;;;9.60;99.90;;;;;;4947631;28;20466;-46
2024/02/11 02:56:27;;;;;;;4.30;3.27;;;9.60;99.90;;;;;;4960497;28;20558;-48
2024/02/11 02:58:57;;;;;;;3.20;2.90;;;9.60;99.90;;;;;;4966466;28;20864;-47
2024/02/11 03:01:27;;;;;;;3.90;2.87;;;9.60;99.90;;;;;;4965145;28;20473;-47
2024/02/11 03:04:01;;;;;;;3.20;2.87;;;9.60;99.90;;;;;;4953040;28;20459;-48
2024/02/11 03:06:30;;;;;;;3.07;2.60;;;9.60;99.90;;;;;;4969983;28;20462;-47
2024/02/11 03:09:00;;;;;;;4.20;3.27;;;9.60;99.90;;;;;;4953528;28;20443;-48
2024/02/11 03:11:31;;;;;;;3.40;3.10;;;9.60;99.90;;;;;;4948450;28;20467;-46
2024/02/11 03:14:01;;;;;;;3.80;3.10;;;9.60;99.90;;;;;;4971589;28;20458;-47
2024/02/11 03:16:29;;;;;;;5.10;3.07;;;9.60;99.90;;;;;;4967957;28;21043;-47
2024/02/11 03:18:58;;;;;;;4.30;3.30;;;9.60;99.90;;;;;;4970828;28;20435;-46
2024/02/11 03:21:26;;;;;;;4.40;3.60;;;9.60;99.90;;;;;;4971139;28;21199;-46
2024/02/11 03:23:56;;;;;;;4.67;3.43;;;9.60;99.90;;;;;;4971363;28;20511;-47
2024/02/11 03:26:24;;;;;;;3.63;3.20;;;9.60;99.90;;;;;;4967680;28;20521;-47
2024/02/11 03:28:55;;;;;;;4.70;3.20;;;9.50;99.90;;;;;;4953844;28;20441;-47
2024/02/11 03:31:25;;;;;;;3.83;3.10;;;9.60;99.90;;;;;;4969734;28;20546;-47
2024/02/11 03:33:54;;;;;;;3.80;2.80;;;9.60;99.90;;;;;;4969273;28;20895;-47
2024/02/11 03:36:24;;;;;;;4.47;2.70;;;9.60;99.90;;;;;;4968959;28;20514;-47
2024/02/11 03:38:53;;;;;;;3.80;2.83;;;9.50;99.90;;;;;;4971133;28;20430;-49
2024/02/11 03:41:22;;;;;;;3.43;2.90;;;9.60;99.90;;;;;;4968065;28;20468;-48
2024/02/11 03:43:55;;;;;;;4.47;2.80;;;9.60;99.90;;;;;;4954386;28;20450;-48
2024/02/11 03:46:27;;;;;;;3.13;2.37;;;9.60;99.90;;;;;;4968459;28;20458;-47
2024/02/11 03:48:59;;;;;;;5.30;2.60;;;9.60;99.90;;;;;;4970187;28;20521;-46
2024/02/11 03:51:27;;;;;;;2.43;2.23;;;9.60;99.90;;;;;;4970880;28;20517;-47
2024/02/11 03:53:59;;;;;;;2.83;2.43;;;9.60;99.90;;;;;;4956910;28;20533;-46
2024/02/11 03:56:28;;;;;;;3.47;2.60;;;9.60;99.90;;;;;;4951400;28;20471;-46
2024/02/11 03:58:59;;;;;;;3.20;2.47;;;9.60;99.90;;;;;;4971440;28;20518;-47
2024/02/11 04:01:28;;;;;;;2.70;2.33;;;9.60;99.90;;;;;;4968965;28;20558;-48
2024/02/11 04:03:56;;;;;;;3.20;2.47;;;9.60;99.90;;;;;;4963258;28;20517;-47
2024/02/11 04:06:27;;;;;;;2.80;2.30;;;9.60;99.90;;;;;;4964963;28;20563;-47
2024/02/11 04:08:57;;;;;;;2.10;1.90;;;9.60;99.90;;;;;;4961140;28;20821;-49
2024/02/11 04:11:32;;;;;;;2.87;2.23;;;9.60;99.90;;;;;;4943989;28;20553;-48
2024/02/11 04:14:02;;;;;;;2.30;1.73;;;9.60;99.90;;;;;;4961725;28;21012;-47
2024/02/11 04:16:33;;;;;;;2.73;2.20;;;9.60;99.90;;;;;;4960444;28;20502;-48
2024/02/11 04:19:02;;;;;;;2.83;2.10;;;9.60;99.90;;;;;;4963154;28;20435;-47
2024/02/11 04:21:35;;;;;;;2.77;2.00;;;9.60;99.90;;;;;;4963952;28;20557;-47
2024/02/11 04:24:08;;;;;;;3.13;1.90;;;9.60;99.90;;;;;;4963632;28;20450;-47
2024/02/11 04:26:39;;;;;;;2.97;2.67;;;9.60;99.90;;;;;;4962021;28;20867;-47
2024/02/11 04:29:14;;;;;;;3.40;1.90;;;9.60;99.90;;;;;;4965671;28;20813;-47
2024/02/11 04:31:43;;;;;;;2.80;2.10;;;9.60;99.90;;;;;;4961812;28;20508;-49
2024/02/11 04:34:12;;;;;;;2.03;1.60;;;9.60;99.90;;;;;;4964018;28;20507;-47
2024/02/11 04:36:42;;;;;;;2.77;1.67;;;9.60;99.90;;;;;;4961947;28;20554;-47
2024/02/11 04:39:12;;;;;;;2.53;2.00;;;9.60;99.90;;;;;;4957739;28;20435;-49
2024/02/11 04:41:42;;;;;;;4.00;2.10;;;9.60;99.90;;;;;;4965960;28;20515;-46
2024/02/11 04:44:11;;;;;;;1.83;1.50;;;9.60;99.90;;;;;;4960557;28;20553;-47
2024/02/11 04:46:43;;;;;;;2.13;1.67;;;9.60;99.90;;;;;;4963359;28;21013;-46
2024/02/11 04:49:12;;;;;;;2.10;1.73;;;9.60;99.90;;;;;;4962674;28;20941;-48
2024/02/11 04:51:41;;;;;;;2.90;1.93;;;9.60;99.90;;;;;;4966472;28;20478;-47
2024/02/11 04:54:11;;;;;;;4.20;1.80;;;9.60;99.90;;;;;;4962826;28;20487;-50
2024/02/11 04:56:41;;;;;;;1.87;1.40;;;9.60;99.90;;;;;;4956177;28;20567;-46
2024/02/11 04:59:15;;;;;;;2.43;1.60;;;9.60;99.90;;;;;;4961621;28;20443;-47
2024/02/11 05:01:45;;;;;;;2.27;1.93;;;9.60;99.90;;;;;;4962472;28;20485;-47
2024/02/11 05:04:14;;;;;;;2.37;1.80;;;9.60;99.90;;;;;;4964449;28;20659;-47
2024/02/11 05:06:43;;;;;;;2.40;1.57;;;9.60;99.90;;;;;;4964132;28;20873;-47
2024/02/11 05:09:15;;;;;;;2.17;1.63;;;9.50;99.90;;;;;;4960778;28;20435;-48
2024/02/11 05:11:45;;;;;;;4.00;1.40;;;9.60;99.90;;;;;;4959166;28;20486;-48
2024/02/11 05:14:17;;;;;;;2.00;1.50;;;9.60;99.90;;;;;;4944497;28;20459;-50
2024/02/11 05:16:47;;;;;;;2.13;1.87;;;9.60;99.90;;;;;;4957895;28;20534;-50
2024/02/11 05:19:16;;;;;;;2.30;1.67;;;9.50;99.90;;;;;;4965913;28;20862;-48
2024/02/11 05:21:46;;;;;;;2.33;1.83;;;9.50;99.90;;;;;;4965570;28;20467;-47
2024/02/11 05:24:16;;;;;;;2.23;1.53;;;9.50;99.90;;;;;;4964680;28;20458;-48
2024/02/11 05:26:46;;;;;;;2.10;1.80;;;9.60;99.90;;;;;;4960882;28;20467;-49
2024/02/11 05:29:17;;;;;;;2.60;2.07;;;9.50;99.90;;;;;;4964602;28;20440;-48
2024/02/11 05:31:50;;;;;;;2.40;1.87;;;9.50;99.90;;;;;;4961410;28;20486;-47
2024/02/11 05:34:24;;;;;;;1.93;1.70;;;9.50;99.90;;;;;;4965206;28;20545;-48
2024/02/11 05:36:55;;;;;;;2.20;1.40;;;9.50;99.90;;;;;;4946681;28;20567;-47
2024/02/11 05:39:23;;;;;;;2.60;1.50;;;9.50;99.90;;;;;;4960481;28;20435;-47
2024/02/11 05:41:53;;;;;;;2.53;1.80;;;9.50;99.90;;;;;;4963455;28;20546;-47
2024/02/11 05:44:23;;;;;;;3.50;1.83;;;9.50;99.90;;;;;;4962917;28;20463;-49
2024/02/11 05:46:54;;;;;;;3.77;2.00;;;9.50;99.90;;;;;;4962245;28;20512;-49
2024/02/11 05:49:25;;;;;;;3.10;1.77;;;9.50;99.90;;;;;;4966888;28;20789;-47
2024/02/11 05:51:54;;;;;;;2.70;1.70;;;9.50;99.90;;;;;;4965058;28;20470;-48
2024/02/11 05:54:27;;;;;;;3.37;1.77;;;9.50;99.90;;;;;;4946384;28;20477;-48
2024/02/11 05:56:56;;;;;;;4.50;1.93;;;9.50;99.90;;;;;;4962554;28;20987;-47
2024/02/11 05:59:25;;;;;;;3.70;1.67;;;9.50;99.90;;;;;;4965331;28;20522;-48
2024/02/11 06:01:54;;;;;;;2.67;1.97;;;9.50;99.90;;;;;;4962405;28;20585;-47
2024/02/11 06:04:24;;;;;;;4.13;1.60;;;9.50;99.90;;;;;;4962027;28;20538;-49
2024/02/11 06:06:57;;;;;;;3.30;1.80;;;9.50;99.90;;;;;;4962926;28;20462;-48
2024/02/11 06:09:27;;;;;;;2.60;1.60;;;9.50;99.90;;;;;;4963582;28;20470;-49
2024/02/11 06:11:58;;;;;;;2.70;1.37;;;9.50;99.90;;;;;;4958775;28;20997;-46
2024/02/11 06:14:27;;;;;;;3.90;1.63;;;9.50;99.90;;;;;;4962794;28;20473;-48
2024/02/11 06:16:57;;;;;;;2.57;1.90;;;9.50;99.90;;;;;;4956916;28;20487;-48
2024/02/11 06:19:26;;;;;;;2.70;2.00;;;9.50;99.90;;;;;;4965710;28;20464;-49
2024/02/11 06:21:59;;;;;;;3.07;1.73;;;9.50;99.90;;;;;;4964715;28;20468;-46
2024/02/11 06:24:28;;;;;;;3.27;1.90;;;9.50;99.90;;;;;;4948579;28;20449;-48
2024/02/11 06:26:59;;;;;;;2.80;1.80;;;9.50;99.90;;;;;;4963077;28;20818;-47
2024/02/11 06:29:27;;;;;;;2.10;1.43;;;9.50;99.90;;;;;;4948243;28;21121;-50
2024/02/11 06:31:59;;;;;;;2.70;1.70;;;9.50;99.90;;;;;;4961490;28;20475;-46
2024/02/11 06:34:27;;;;;;;1.80;1.30;;;9.50;99.90;;;;;;4964987;28;20460;-47
2024/02/11 06:36:56;;;;;;;2.90;1.90;;;9.50;99.90;;;;;;4959833;28;20563;-46
2024/02/11 06:39:25;;;;;;;2.27;1.77;;;9.50;99.90;;;;;;4950755;28;20836;-50
2024/02/11 06:41:53;;;;;;;3.43;2.00;;;9.50;99.90;;;;;;4965904;28;20458;-47
2024/02/11 06:44:26;;;;;;;2.60;2.17;;;9.50;99.90;;;;;;4954014;28;20561;-48
2024/02/11 06:46:58;;;;;;;3.10;2.20;;;9.50;99.90;;;;;;4960954;28;20471;-47
2024/02/11 06:49:28;;;;;;;2.90;2.17;;;9.50;99.90;;;;;;4965161;28;20431;-48
2024/02/11 06:51:56;;;;;;;2.70;1.87;;;9.50;99.90;;;;;;4945058;28;20499;-46
2024/02/11 06:54:25;;;;;;;3.00;2.03;;;9.50;99.90;;;;;;4944051;28;20464;-50
2024/02/11 06:56:57;;;;;;;2.40;1.80;;;9.50;99.90;;;;;;4959902;28;21134;-49
2024/02/11 06:59:26;;;;;;;2.40;1.80;;;9.50;99.90;;;;;;4964668;28;20469;-48
2024/02/11 07:01:56;;;;;;;2.40;1.70;;;9.50;99.90;;;;;;4943359;28;20470;-50
2024/02/11 07:04:32;;;;;;;2.43;2.00;;;9.50;99.90;;;;;;4962760;28;20446;-49
2024/02/11 07:07:03;;;;;;;2.87;2.03;;;9.50;99.90;;;;;;4946021;28;20467;-47
2024/02/11 07:09:33;;;;;;;3.43;2.40;;;9.50;99.90;;;;;;4962842;28;20480;-46
2024/02/11 07:12:02;;;;;;;5.40;2.97;;;9.50;99.90;;;;;;4942837;28;20459;-47
2024/02/11 07:14:31;;;;;;;4.40;2.77;;;9.50;99.90;;;;;;4945277;28;20972;-48
2024/02/11 07:17:02;;;;;;;3.17;2.50;;;9.50;99.90;;;;;;4959680;28;20482;-47
2024/02/11 07:19:35;;;;;;;4.43;2.20;;;9.50;99.90;;;;;;4964535;28;20533;-47
2024/02/11 07:22:03;;;;;;;3.27;2.50;;;9.50;99.90;;;;;;4961308;28;20475;-47
2024/02/11 07:24:32;;;;;;;4.20;2.03;;;9.50;99.90;;;;;;4945628;28;20899;-49
2024/02/11 07:27:01;;;;;;;6.70;1.90;;;9.50;99.90;;;;;;4960429;28;20470;-47
2024/02/11 07:29:32;;;;;;;4.60;2.63;;;9.50;99.90;;;;;;4964227;28;20538;-50
2024/02/11 07:32:02;;;;;;;7.90;2.40;;;9.50;99.90;;;;;;4941535;28;21110;-48
2024/02/11 07:34:33;;;;;;;3.60;2.30;;;9.50;99.90;;;;;;4946632;28;20565;-51
2024/02/11 07:37:02;;;;;;;2.23;1.43;;;9.50;99.90;;;;;;4944636;28;21070;-47
2024/02/11 07:39:32;;;;;;;2.70;2.00;;;9.50;99.90;;;;;;4961689;28;20463;-47
2024/02/11 07:42:02;;;;;;;3.93;2.20;;;9.50;99.90;;;;;;4938287;28;20550;-50
2024/02/11 07:44:32;;;;;;;3.07;2.30;;;9.50;99.90;;;;;;4963759;28;20540;-46
2024/02/11 07:47:05;;;;;;;9.53;2.70;;;9.50;99.90;;;;;;4960392;28;20557;-47
2024/02/11 07:49:36;;;;;;;3.07;2.33;;;9.50;99.90;;;;;;4964826;28;20431;-46
2024/02/11 07:52:06;;;;;;;4.30;2.40;;;9.50;99.90;;;;;;4945532;28;20467;-46
2024/02/11 07:54:34;;;;;;;2.87;1.90;;;9.50;99.90;;;;;;4963605;28;20474;-45
2024/02/11 07:57:03;;;;;;;3.57;2.30;;;9.50;99.90;;;;;;4950023;28;20516;-46
2024/02/11 07:59:33;;;;;;;2.83;1.77;;;9.50;99.90;;;;;;4964654;28;20467;-46
2024/02/11 08:02:02;;;;;;;3.40;2.67;;;9.50;99.90;;;;;;4957956;28;20533;-47
2024/02/11 08:04:32;;;;;;;4.43;1.93;;;9.50;99.90;;;;;;4945671;28;20459;-45
2024/02/11 08:07:02;;;;;;;3.30;2.43;;;9.50;99.90;;;;;;4960237;28;20573;-45
2024/02/11 08:09:32;;;;;;;2.30;1.70;;;9.50;99.90;;;;;;4962941;28;20450;-45
2024/02/11 08:12:05;;;;;;;3.40;2.40;;;9.50;99.90;;;;;;4959860;28;20598;-46
2024/02/11 08:14:45;;;;;;;4.83;2.20;;;9.50;99.90;;;;;;4949795;28;20561;-46
2024/02/11 08:17:16;;;;;;;5.03;2.00;;;9.50;99.90;;;;;;4958185;28;20525;-46
2024/02/11 08:19:47;;;;;;;2.13;1.50;;;9.50;99.90;;;;;;4967123;28;20470;-46
2024/02/11 08:22:18;;;;;;;4.10;1.80;;;9.50;99.90;;;;;;4949640;28;20474;-46
2024/02/11 08:24:47;;;;;;;2.60;1.90;;;9.50;99.90;;;;;;4962930;28;20466;-46
2024/02/11 08:27:16;;;;;;;2.43;1.90;;;9.50;99.90;;;;;;4948550;28;20482;-46
2024/02/11 08:29:49;;;;;;;3.37;1.83;;;9.50;99.90;;;;;;4967382;28;20861;-46
2024/02/11 08:32:18;;;;;;;2.83;2.10;;;9.50;99.90;;;;;;4957954;28;20578;-46
2024/02/11 08:34:47;;;;;;;3.47;1.77;;;9.50;99.90;;;;;;4966687;28;20460;-46
2024/02/11 08:37:16;;;;;;;3.50;1.90;;;9.50;99.90;;;;;;4948280;28;20451;-46
2024/02/11 08:39:48;;;;;;;3.97;2.10;;;9.50;99.90;;;;;;4967445;28;20455;-45
2024/02/11 08:42:17;;;;;;;3.17;2.30;;;9.50;99.90;;;;;;4943036;28;21048;-46
2024/02/11 08:44:47;;;;;;;2.27;1.80;;;9.50;99.90;;;;;;4948237;28;21353;-46
2024/02/11 08:47:15;;;;;;;3.23;2.00;;;9.50;99.90;;;;;;4959933;28;20470;-46
2024/02/11 08:49:48;;;;;;;4.70;2.60;;;9.50;99.90;;;;;;4966823;28;20530;-46
2024/02/11 08:52:17;;;;;;;3.20;2.10;;;9.50;99.90;;;;;;4966235;28;21043;-45
2024/02/11 08:54:48;;;;;;;2.83;2.03;;;9.50;99.90;;;;;;4967098;28;20466;-45
2024/02/11 08:57:17;;;;;;;3.90;1.93;;;9.50;99.90;;;;;;4960473;28;21051;-45
2024/02/11 08:59:50;;;;;;;4.20;2.40;;;9.50;99.90;;;;;;4966651;28;20452;-45
2024/02/11 09:02:26;;;;;;;2.30;1.80;;;9.50;99.90;;;;;;4961115;28;20487;-45
2024/02/11 09:04:59;;;;;;;2.37;1.70;;;9.50;99.90;;;;;;4964768;28;20431;-45
2024/02/11 09:07:29;;;;;;;3.30;1.87;;;9.50;99.90;;;;;;4941868;28;20479;-45
2024/02/11 09:09:59;;;;;;;2.53;1.90;;;9.50;99.90;;;;;;4965185;28;20467;-46
2024/02/11 09:12:33;;;;;;;3.20;1.83;;;9.50;99.90;;;;;;4962748;28;20510;-47
2024/02/11 09:15:02;;;;;;;2.30;1.90;;;9.50;99.90;;;;;;4964364;28;20451;-46
2024/02/11 09:17:32;;;;;;;2.90;1.63;;;9.50;99.90;;;;;;4945660;28;20482;-46
2024/02/11 09:20:02;;;;;;;2.50;1.90;;;9.50;99.90;;;;;;4948702;28;20490;-44
2024/02/11 09:22:32;;;;;;;2.63;1.70;;;9.50;99.90;;;;;;4964472;28;20517;-45
2024/02/11 09:25:06;;;;;;;3.90;2.40;;;9.50;99.90;;;;;;4963874;28;20451;-47
2024/02/11 09:27:39;;;;;;;2.83;1.63;;;9.50;99.90;;;;;;4948614;28;20552;-45
2024/02/11 09:30:11;;;;;;;2.70;1.50;;;9.50;99.90;;;;;;4949372;28;20463;-46
2024/02/11 09:32:39;;;;;;;3.07;2.30;;;9.50;99.90;;;;;;4958112;28;20478;-48
2024/02/11 09:35:10;;;;;;;2.13;1.40;;;9.50;99.90;;;;;;4956589;28;20490;-49
2024/02/11 09:37:39;;;;;;;3.00;2.17;;;9.50;99.90;;;;;;4946985;28;21049;-45
2024/02/11 09:40:10;;;;;;;3.00;1.90;;;9.50;99.90;;;;;;4964495;28;20542;-47
2024/02/11 09:42:41;;;;;;;1.90;1.30;;;9.50;99.90;;;;;;4962637;28;20542;-48
2024/02/11 09:45:15;;;;;;;2.60;1.90;;;9.50;99.90;;;;;;4964220;28;20527;-50
2024/02/11 09:47:49;;;;;;;3.10;2.00;;;9.50;99.90;;;;;;4959661;28;20963;-47
2024/02/11 09:50:20;;;;;;;2.73;1.83;;;9.50;99.90;;;;;;4945924;28;20951;-48
2024/02/11 09:52:53;;;;;;;2.13;1.50;;;9.50;99.90;;;;;;4960483;28;20833;-48
2024/02/11 09:55:23;;;;;;;2.70;1.80;;;9.50;99.90;;;;;;4959215;28;20441;-48
2024/02/11 09:57:54;;;;;;;2.37;1.30;;;9.50;99.90;;;;;;4941615;28;20554;-48
2024/02/11 10:00:25;;;;;;;2.73;1.73;;;9.50;99.90;;;;;;4964909;28;20954;-50
2024/02/11 10:02:57;;;;;;;2.17;1.60;;;9.50;99.90;;;;;;4958756;28;21334;-48
2024/02/11 10:05:32;;;;;;;1.70;1.30;;;9.50;99.90;;;;;;4964056;28;20951;-48
2024/02/11 10:08:10;;;;;;;2.20;1.50;;;9.50;99.90;;;;;;4963879;28;20558;-48
2024/02/11 10:10:43;;;;;;;2.73;1.37;;;9.50;99.90;;;;;;4965879;28;20436;-48
2024/02/11 10:13:19;;;;;;;3.13;1.97;;;9.50;99.90;;;;;;4959004;28;20477;-47
2024/02/11 10:15:52;;;;;;;3.03;1.60;;;9.50;99.90;;;;;;4963145;28;20897;-49
2024/02/11 10:18:25;;;;;;;2.20;1.37;;;9.50;99.90;;;;;;4946759;28;20474;-48
2024/02/11 10:21:02;;;;;;;2.30;1.80;;;9.40;99.90;;;;;;4963747;28;20844;-47
2024/02/11 10:23:33;;;;;;;2.63;1.70;;;9.50;99.90;;;;;;4960941;28;20454;-48
2024/02/11 10:26:06;;;;;;;5.00;1.70;;;9.50;99.90;;;;;;4961957;28;20443;-47
2024/02/11 10:28:38;;;;;;;2.33;1.53;;;9.50;99.90;;;;;;4965369;28;20869;-49
2024/02/11 10:31:10;;;;;;;2.63;1.67;;;9.50;99.90;;;;;;4962851;28;20837;-47
2024/02/11 10:33:41;;;;;;;2.10;1.33;;;9.50;99.90;;;;;;4960746;28;20545;-48
2024/02/11 10:36:11;;;;;;;2.73;2.03;;;9.50;99.90;;;;;;4962875;28;20504;-48
2024/02/11 10:38:40;;;;;;;3.80;2.10;;;9.50;99.90;;;;;;4965559;28;20542;-49
2024/02/11 10:41:12;;;;;;;3.00;1.70;;;9.50;99.90;;;;;;4959654;28;20489;-47
2024/02/11 10:43:41;;;;;;;2.03;1.37;;;9.50;99.90;;;;;;4963547;28;20537;-48
2024/02/11 10:46:12;;;;;;;4.03;1.50;;;9.50;99.90;;;;;;4962179;28;20618;-47
2024/02/11 10:48:41;;;;;;;4.70;1.30;;;9.50;99.90;;;;;;4962151;28;20478;-46
2024/02/11 10:51:14;;;;;;;2.80;1.60;;;9.50;99.90;;;;;;4963049;28;20419;-46
2024/02/11 10:53:48;;;;;;;1.83;1.50;;;9.50;99.90;;;;;;4947705;28;20490;-48
2024/02/11 10:56:18;;;;;;;2.13;1.60;;;9.50;99.90;;;;;;4961750;28;20469;-47
2024/02/11 10:59:08;;;;;;;2.00;1.20;;;9.50;99.90;;;;;;4964766;28;20428;-48
2024/02/11 11:01:40;;;;;;;2.47;1.70;;;9.50;99.90;;;;;;4959559;28;20486;-47
2024/02/11 11:04:15;;;;;;;1.77;1.30;;;9.50;99.90;;;;;;4941404;28;20820;-46
2024/02/11 11:06:46;;;;;;;3.63;1.40;;;9.50;99.90;;;;;;4945387;28;20473;-47
2024/02/11 11:09:16;;;;;;;3.10;1.87;;;9.50;99.90;;;;;;4963666;28;20427;-48
2024/02/11 11:11:46;;;;;;;2.50;1.43;;;9.50;99.90;;;;;;4957089;28;20474;-49
2024/02/11 11:14:19;;;;;;;2.47;1.83;;;9.50;99.90;;;;;;4963757;28;20463;-47
2024/02/11 11:16:48;;;;;;;2.13;1.43;;;9.50;99.90;;;;;;4960762;28;20553;-46
2024/02/11 11:19:19;;;;;;;2.70;1.43;;;9.50;99.90;;;;;;4965237;28;20473;-49
2024/02/11 11:21:52;;;;;;;2.00;1.50;;;9.50;99.90;;;;;;4959173;28;20460;-47
2024/02/11 11:24:22;;;;;;;1.97;1.40;;;9.50;99.90;;;;;;4959382;28;21028;-50
2024/02/11 11:26:57;;;;;;;2.97;1.90;;;9.50;99.90;;;;;;4960054;28;20469;-47
2024/02/11 11:29:27;;;;;;;2.10;1.40;;;9.50;99.90;;;;;;4963646;28;20431;-47
2024/02/11 11:31:58;;;;;;;2.40;1.70;;;9.50;99.90;;;;;;4962196;28;20479;-47
2024/02/11 11:34:27;;;;;;;1.77;1.40;;;9.50;99.90;;;;;;4964988;28;20455;-48
2024/02/11 11:36:57;;;;;;;4.10;1.43;;;9.50;99.90;;;;;;4962854;28;20479;-47
2024/02/11 11:39:26;;;;;;;3.07;1.60;;;9.50;99.90;;;;;;4946395;28;20529;-48
2024/02/11 11:41:58;;;;;;;1.90;1.60;;;9.50;99.90;;;;;;4963139;28;20478;-47
2024/02/11 11:44:27;;;;;;;2.10;1.27;;;9.50;99.90;;;;;;4964293;28;21017;-48
2024/02/11 11:46:59;;;;;;;2.27;1.60;;;9.50;99.90;;;;;;4960210;28;20608;-47
2024/02/11 11:49:29;;;;;;;2.47;1.53;;;9.50;99.90;;;;;;4966795;28;20875;-47
2024/02/11 11:51:58;;;;;;;3.00;1.70;;;9.50;99.90;;;;;;4967265;28;20459;-47
2024/02/11 11:54:28;;;;;;;2.33;1.30;;;9.50;99.90;;;;;;4968494;28;20853;-47
2024/02/11 11:56:59;;;;;;;3.30;1.43;;;9.50;99.90;;;;;;4945588;28;20481;-47
2024/02/11 11:59:28;;;;;;;2.23;1.57;;;9.50;99.90;;;;;;4968672;28;20440;-48
2024/02/11 12:01:57;;;;;;;2.20;1.50;;;9.50;99.90;;;;;;4965057;28;20565;-47
2024/02/11 12:04:27;;;;;;;2.33;1.47;;;9.50;99.90;;;;;;4967104;28;20477;-47
2024/02/11 12:06:56;;;;;;;1.83;1.20;;;9.50;99.90;;;;;;4964878;28;20481;-46
2024/02/11 12:09:26;;;;;;;2.33;1.30;;;9.50;99.90;;;;;;4962933;28;20439;-46
2024/02/11 12:11:55;;;;;;;2.30;1.30;;;9.50;99.90;;;;;;4963836;28;20501;-44
2024/02/11 12:14:27;;;;;;;2.50;1.60;;;9.50;99.90;;;;;;4950424;28;20483;-47
2024/02/11 12:16:58;;;;;;;1.60;1.40;;;9.50;99.90;;;;;;4961074;28;20478;-46
2024/02/11 12:19:27;;;;;;;4.23;1.37;;;9.50;99.90;;;;;;4967457;28;20567;-46
2024/02/11 12:21:56;;;;;;;2.00;1.10;;;9.50;99.90;;;;;;4965729;28;20469;-46
2024/02/11 12:24:27;;;;;;;2.37;1.47;;;9.50;99.90;;;;;;4944275;28;20601;-47
2024/02/11 12:26:58;;;;;;;2.40;1.70;;;9.50;99.90;;;;;;4962249;28;20466;-46
2024/02/11 12:29:28;;;;;;;2.20;1.80;;;9.50;99.90;;;;;;4967362;28;20466;-46
2024/02/11 12:31:57;;;;;;;2.83;1.70;;;9.50;99.90;;;;;;4962369;28;20482;-46
2024/02/11 12:34:29;;;;;;;1.93;1.20;;;9.50;99.90;;;;;;4967036;28;20485;-47
2024/02/11 12:37:03;;;;;;;3.30;1.43;;;9.50;99.90;;;;;;4965636;28;20530;-46
2024/02/11 12:39:33;;;;;;;2.70;1.53;;;9.50;99.90;;;;;;4963555;28;21036;-44
2024/02/11 12:42:03;;;;;;;2.13;1.40;;;9.50;99.90;;;;;;4965369;28;20481;-44
2024/02/11 12:44:33;;;;;;;2.17;1.60;;;9.50;99.90;;;;;;4949854;28;20509;-44
2024/02/11 12:47:02;;;;;;;2.93;1.43;;;9.50;99.90;;;;;;4961481;28;20483;-46
2024/02/11 12:49:33;;;;;;;2.37;1.30;;;9.50;99.90;;;;;;4967613;28;20775;-47
2024/02/11 12:52:03;;;;;;;1.70;1.10;;;9.50;99.90;;;;;;4948867;28;20865;-46
2024/02/11 12:54:35;;;;;;;1.67;1.30;;;9.50;99.90;;;;;;4966183;28;20567;-46
2024/02/11 12:57:05;;;;;;;2.90;1.50;;;9.50;99.90;;;;;;4962814;28;20999;-46
2024/02/11 12:59:35;;;;;;;1.83;1.20;;;9.50;99.90;;;;;;4965436;28;20428;-46
2024/02/11 13:02:03;;;;;;;1.97;1.27;;;9.50;99.90;;;;;;4962574;28;20881;-46
2024/02/11 13:04:34;;;;;;;2.30;1.30;;;9.50;99.90;;;;;;4965946;28;20959;-46
2024/02/11 13:07:02;;;;;;;2.10;1.40;;;9.50;99.90;;;;;;4964207;28;20559;-46
2024/02/11 13:09:31;;;;;;;2.17;1.20;;;9.50;99.90;;;;;;4966626;28;20491;-46
2024/02/11 13:12:00;;;;;;;2.10;1.43;;;9.50;99.90;;;;;;4963085;28;21058;-46
2024/02/11 13:14:33;;;;;;;2.33;1.40;;;9.50;99.90;;;;;;4965164;28;21070;-46